Weather at Shymkent Airport

Public forecast

Using degrees Celsius for public forecast. Weather courtesy of forecast.io.

Current aviation weather report (METAR) for Shymkent Airport

Retrieved 2021/04/19 06:30 UTC (4 minutes ago):

UAII 190630Z 29004MPS 250V330 CAVOK 24/03 Q1016 R28/0///70 NOSIG RMK QFE725/0966

Aviation forecast (TAF) for Shymkent Airport

Retrieved 2021/04/19 06:21 UTC (13 minutes ago):

TAF UAII 190502Z 1906/2006 23003G08MPS 8000 SCT040CB TX26/1910Z TN12/2001Z TEMPO 1906/1916 26005G10MPS TEMPO 1916/2003 4000 FU BR BKN033CB